Time;durP1;ratioP1;P1;durP2;ratioP2;P2;SDS_P1;SDS_P2;PMS_P1;PMS_P2;Temp;Humidity;BMP_temperature;BMP_pressure;BME280_temperature;BME280_humidity;BME280_pressure;Samples;Min_cycle;Max_cycle;Signal;HPM_P1;HPM_P2
2023/09/14 00:00:28;;;;;;;9.03;6.77;;;;;;;21.74;61.31;95006.91;5052420;28;20440;-81
2023/09/14 00:02:55;;;;;;;9.33;6.10;;;;;;;21.78;60.72;94998.31;5052814;28;20866;-81
2023/09/14 00:05:22;;;;;;;9.40;6.33;;;;;;;21.78;60.72;94997.47;5017557;28;20445;-80
2023/09/14 00:07:48;;;;;;;10.40;6.30;;;;;;;21.77;60.38;95004.66;5052930;28;20443;-81
2023/09/14 00:10:15;;;;;;;7.30;5.60;;;;;;;21.74;59.95;94993.56;5052228;28;20974;-81
2023/09/14 00:12:42;;;;;;;10.03;6.00;;;;;;;21.73;60.06;94994.56;5052622;28;20870;-81
2023/09/14 00:15:11;;;;;;;8.00;6.40;;;;;;;21.72;59.84;94996.41;5052484;28;20450;-80
2023/09/14 00:17:37;;;;;;;10.33;7.00;;;;;;;21.70;59.97;94997.63;5052231;28;20448;-80
2023/09/14 00:20:06;;;;;;;8.00;5.80;;;;;;;21.72;60.62;95000.94;5052307;28;20441;-80
2023/09/14 00:22:33;;;;;;;8.27;6.27;;;;;;;21.71;60.18;94999.28;5052341;28;20494;-81
2023/09/14 00:25:00;;;;;;;8.57;6.30;;;;;;;21.62;60.25;95003.94;5052266;28;20781;-81
2023/09/14 00:27:27;;;;;;;8.27;6.23;;;;;;;21.59;60.38;95005.16;5052474;28;20449;-81
2023/09/14 00:29:53;;;;;;;8.13;6.53;;;;;;;21.60;60.71;95006.78;5052476;28;20480;-80
2023/09/14 00:32:22;;;;;;;10.10;6.30;;;;;;;21.57;60.89;94996.50;5052238;28;20492;-80
2023/09/14 00:34:48;;;;;;;6.90;6.10;;;;;;;21.48;60.87;94996.88;5052415;28;20446;-81
2023/09/14 00:37:15;;;;;;;7.63;6.23;;;;;;;21.49;61.56;95004.69;5055051;28;20440;-80
2023/09/14 00:39:42;;;;;;;10.47;6.80;;;;;;;21.48;61.87;95000.34;5056125;28;20445;-81
2023/09/14 00:42:09;;;;;;;9.90;7.13;;;;;;;21.44;61.65;95004.44;5020739;28;20483;-80
2023/09/14 00:44:36;;;;;;;8.83;6.80;;;;;;;21.41;61.86;94998.66;5055771;28;20450;-80
2023/09/14 00:47:03;;;;;;;9.70;6.80;;;;;;;21.43;61.90;94999.28;5055853;28;20442;-80
2023/09/14 00:49:31;;;;;;;7.43;6.60;;;;;;;21.40;61.57;94999.69;5055954;28;20772;-81
2023/09/14 00:51:58;;;;;;;10.37;6.47;;;;;;;21.38;62.15;95002.53;5055965;28;20942;-80
2023/09/14 00:54:25;;;;;;;12.97;5.70;;;;;;;21.31;62.94;94993.66;5055632;28;20441;-80
2023/09/14 00:56:52;;;;;;;12.13;6.73;;;;;;;21.26;63.03;94990.72;5055893;28;20447;-80
2023/09/14 00:59:19;;;;;;;10.83;6.63;;;;;;;21.20;63.79;94994.16;5055605;28;20458;-80
2023/09/14 01:01:46;;;;;;;8.90;6.50;;;;;;;21.14;64.17;94994.94;5055594;28;20988;-80
2023/09/14 01:04:13;;;;;;;8.87;7.00;;;;;;;21.17;64.36;95000.69;5055178;28;20458;-81
2023/09/14 01:06:41;;;;;;;13.50;6.87;;;;;;;21.13;64.55;94999.44;5055362;28;20564;-80
2023/09/14 01:09:08;;;;;;;7.33;6.60;;;;;;;21.06;65.26;95003.03;5055176;28;20450;-81
2023/09/14 01:11:35;;;;;;;10.27;7.37;;;;;;;21.09;64.69;95003.47;5055497;28;20471;-80
2023/09/14 01:14:10;;;;;;;10.43;7.20;;;;;;;20.97;65.42;94997.00;5054970;28;20504;-79
2023/09/14 01:16:45;;;;;;;12.20;6.67;;;;;;;20.92;65.36;95000.25;5055142;28;20453;-81
2023/09/14 01:19:28;;;;;;;10.17;6.47;;;;;;;20.75;65.64;94996.19;5055249;28;20454;-80
2023/09/14 01:22:21;;;;;;;11.10;7.30;;;;;;;20.75;65.97;94996.19;5055032;28;20483;-81
2023/09/14 01:24:56;;;;;;;7.80;6.90;;;;;;;20.71;65.99;94995.75;5054941;28;20450;-80
2023/09/14 01:27:24;;;;;;;7.50;6.80;;;;;;;20.59;66.48;94996.44;5054769;28;20447;-81
2023/09/14 01:29:51;;;;;;;8.37;7.40;;;;;;;20.60;66.23;94993.59;5054595;28;20441;-79
2023/09/14 01:32:18;;;;;;;9.33;6.10;;;;;;;20.53;66.54;94998.03;5054707;28;20962;-80
2023/09/14 01:34:44;;;;;;;7.27;6.20;;;;;;;20.55;66.55;94993.34;5054873;28;20916;-80
2023/09/14 01:37:11;;;;;;;8.40;6.20;;;;;;;20.45;66.92;95002.63;5054662;28;20438;-80
2023/09/14 01:39:39;;;;;;;7.13;6.43;;;;;;;20.49;67.15;95006.56;5035868;28;20483;-80
2023/09/14 01:42:07;;;;;;;7.97;7.07;;;;;;;20.51;66.51;95001.88;5035924;28;20490;-80
2023/09/14 01:44:35;;;;;;;17.80;7.00;;;;;;;20.50;66.32;95001.03;5054815;28;20445;-79
2023/09/14 01:47:02;;;;;;;8.90;6.00;;;;;;;20.51;66.67;95001.88;5054120;28;20933;-80
2023/09/14 01:49:31;;;;;;;8.53;6.80;;;;;;;20.46;66.11;94996.28;5054202;28;20441;-80
2023/09/14 01:51:58;;;;;;;6.67;5.53;;;;;;;20.42;66.24;95012.66;5054409;28;20448;-80
2023/09/14 01:54:25;;;;;;;15.20;6.70;;;;;;;20.41;66.34;95015.50;5054215;28;20448;-79
2023/09/14 01:56:52;;;;;;;7.40;6.53;;;;;;;20.46;65.88;95012.28;5054252;28;20462;-80
2023/09/14 01:59:18;;;;;;;11.90;6.70;;;;;;;20.49;66.12;95009.22;5054391;28;20493;-80
2023/09/14 02:01:47;;;;;;;8.60;7.07;;;;;;;20.44;66.39;95008.97;5053876;28;20478;-80
2023/09/14 02:04:13;;;;;;;11.13;6.60;;;;;;;20.46;66.53;95001.59;5054190;28;20446;-80
2023/09/14 02:06:40;;;;;;;9.40;6.43;;;;;;;20.44;66.89;95011.63;5054227;28;20457;-80
2023/09/14 02:09:07;;;;;;;10.03;7.37;;;;;;;20.40;66.95;95012.00;5053794;28;20453;-80
2023/09/14 02:11:34;;;;;;;9.70;7.23;;;;;;;20.44;66.94;95008.97;5053715;28;20531;-80
2023/09/14 02:14:01;;;;;;;7.83;6.47;;;;;;;20.45;66.77;95011.44;5054108;28;20438;-80
2023/09/14 02:16:28;;;;;;;6.70;6.10;;;;;;;20.40;66.56;95004.03;5053886;28;20442;-80
2023/09/14 02:18:56;;;;;;;9.57;7.00;;;;;;;20.44;66.13;95009.78;5054020;28;20440;-79
2023/09/14 02:21:23;;;;;;;8.00;6.70;;;;;;;20.48;66.02;95005.75;5053584;28;20445;-79
2023/09/14 02:23:50;;;;;;;10.63;6.50;;;;;;;20.42;65.59;95012.66;5018802;28;20478;-80
2023/09/14 02:26:17;;;;;;;7.27;6.07;;;;;;;20.44;66.14;95014.31;5018667;28;20811;-80
2023/09/14 02:28:43;;;;;;;6.03;5.53;;;;;;;20.45;66.22;95021.28;5053634;28;20438;-80
2023/09/14 02:31:10;;;;;;;7.77;6.30;;;;;;;20.56;65.85;95020.81;5053761;28;20515;-80
2023/09/14 02:33:38;;;;;;;11.73;7.87;;;;;;;20.58;65.63;95024.13;5053615;28;20522;-80
2023/09/14 02:36:06;;;;;;;8.00;6.33;;;;;;;20.64;65.58;95026.03;5034728;28;20442;-80
2023/09/14 02:38:33;;;;;;;10.27;6.37;;;;;;;20.67;65.98;95020.31;5053494;28;20463;-80
2023/09/14 02:41:00;;;;;;;9.13;6.53;;;;;;;20.69;65.30;95026.28;5053504;28;20455;-80
2023/09/14 02:43:26;;;;;;;9.40;6.43;;;;;;;20.59;65.26;95023.09;5053492;28;20534;-79
2023/09/14 02:45:53;;;;;;;9.27;6.63;;;;;;;20.60;65.64;95017.59;5053353;28;21220;-80
2023/09/14 02:48:20;;;;;;;7.40;6.63;;;;;;;20.55;64.83;95019.16;5053336;28;20857;-79
2023/09/14 02:50:47;;;;;;;7.73;6.33;;;;;;;20.61;64.80;95015.75;5053295;28;20506;-81
2023/09/14 02:53:15;;;;;;;9.93;7.10;;;;;;;20.68;65.12;95011.28;5053392;28;20787;-79
2023/09/14 02:55:42;;;;;;;8.30;6.57;;;;;;;20.67;64.76;95009.66;5053614;28;20447;-80
2023/09/14 02:58:08;;;;;;;6.63;5.53;;;;;;;20.74;64.27;95002.53;5053295;28;20452;-81
2023/09/14 03:00:38;;;;;;;6.57;5.83;;;;;;;20.68;64.16;95005.97;5053098;28;20468;-80
2023/09/14 03:03:05;;;;;;;10.00;6.60;;;;;;;20.68;64.73;94995.28;5053413;28;20964;-80
2023/09/14 03:05:32;;;;;;;6.57;5.97;;;;;;;20.57;64.54;95003.81;5053253;28;20441;-80
2023/09/14 03:07:59;;;;;;;8.07;6.67;;;;;;;20.56;64.64;95002.97;5018406;28;20446;-79
2023/09/14 03:10:27;;;;;;;8.13;6.30;;;;;;;20.58;64.65;95002.78;5053005;28;20453;-80
2023/09/14 03:12:54;;;;;;;7.30;5.53;;;;;;;20.60;64.62;95006.09;5053149;28;20457;-81
2023/09/14 03:15:21;;;;;;;7.13;6.43;;;;;;;20.57;64.65;95001.13;5052949;28;20460;-80
2023/09/14 03:17:48;;;;;;;6.17;5.57;;;;;;;20.55;65.03;95001.34;5052947;28;20440;-80
2023/09/14 03:20:15;;;;;;;9.73;7.13;;;;;;;20.50;65.12;94998.38;5018006;28;20450;-80
2023/09/14 03:22:41;;;;;;;10.47;6.73;;;;;;;20.49;65.31;95017.22;5052963;28;20497;-80
2023/09/14 03:25:08;;;;;;;7.43;6.73;;;;;;;20.38;65.63;95007.84;5052994;28;20445;-80
2023/09/14 03:27:38;;;;;;;9.40;6.20;;;;;;;20.38;65.43;95010.53;5052857;28;20441;-80
2023/09/14 03:30:06;;;;;;;8.20;6.60;;;;;;;20.41;65.87;95016.34;5052945;28;20446;-80
2023/09/14 03:32:33;;;;;;;14.03;6.90;;;;;;;20.46;65.71;95012.28;5052742;28;20456;-80
2023/09/14 03:35:00;;;;;;;12.27;6.90;;;;;;;20.42;65.31;95010.00;5052739;28;20448;-79
2023/09/14 03:37:27;;;;;;;10.83;6.03;;;;;;;20.43;64.87;95008.16;5052975;28;20451;-79
2023/09/14 03:39:53;;;;;;;9.10;6.37;;;;;;;20.42;65.36;95012.66;5052720;28;20448;-79
2023/09/14 03:42:20;;;;;;;9.23;6.33;;;;;;;20.38;64.94;95010.53;5052406;28;20536;-79
2023/09/14 03:44:48;;;;;;;13.87;7.20;;;;;;;20.33;64.84;95003.09;5052559;28;20874;-79
2023/09/14 03:47:15;;;;;;;9.90;6.80;;;;;;;20.31;65.15;95006.97;5055646;28;20448;-78
2023/09/14 03:49:42;;;;;;;8.63;6.87;;;;;;;20.25;65.37;95005.03;5023018;28;20460;-79
2023/09/14 03:52:09;;;;;;;8.50;5.90;;;;;;;20.24;65.42;95019.34;5054598;28;20445;-79
2023/09/14 03:54:35;;;;;;;10.00;5.83;;;;;;;20.25;65.92;95018.38;5052422;28;20971;-79
2023/09/14 03:57:02;;;;;;;8.10;6.50;;;;;;;20.23;65.56;95023.84;5052417;28;21705;-78
2023/09/14 03:59:30;;;;;;;9.93;7.83;;;;;;;20.23;65.54;95023.03;5052238;28;20439;-78
2023/09/14 04:01:58;;;;;;;9.60;6.70;;;;;;;20.21;65.62;95030.38;5033767;28;20439;-78
2023/09/14 04:04:25;;;;;;;16.03;6.53;;;;;;;20.22;65.88;95027.53;5052300;28;20488;-78
2023/09/14 04:06:51;;;;;;;9.07;6.67;;;;;;;20.20;66.20;95031.41;5033559;28;20489;-78
2023/09/14 04:09:18;;;;;;;16.23;7.87;;;;;;;20.07;67.11;95032.06;5052410;28;20438;-78
2023/09/14 04:11:45;;;;;;;9.13;7.50;;;;;;;20.03;67.73;95034.28;5054231;28;20469;-78
2023/09/14 04:14:12;;;;;;;8.73;7.83;;;;;;;20.00;68.54;95028.50;5054163;28;20467;-78
2023/09/14 04:16:39;;;;;;;13.00;7.53;;;;;;;19.97;69.21;95039.53;5020818;28;20439;-78
2023/09/14 04:19:07;;;;;;;17.63;8.43;;;;;;;19.94;69.21;95038.03;5037403;28;20438;-78
2023/09/14 04:21:33;;;;;;;16.37;9.70;;;;;;;19.89;69.72;95031.59;5056382;28;20438;-78
2023/09/14 04:24:00;;;;;;;15.63;8.00;;;;;;;19.86;69.78;95034.63;5055794;28;20493;-79
2023/09/14 04:26:28;;;;;;;12.83;8.23;;;;;;;19.83;69.57;95037.66;5055472;28;20821;-79
2023/09/14 04:28:55;;;;;;;8.80;7.80;;;;;;;19.90;70.66;95043.91;5056207;28;20978;-77
2023/09/14 04:31:22;;;;;;;8.40;6.50;;;;;;;20.12;69.33;95050.97;5055896;28;20863;-77
2023/09/14 04:33:49;;;;;;;10.40;6.57;;;;;;;20.41;68.26;95042.16;5056089;28;20524;-77
2023/09/14 04:36:17;;;;;;;11.37;6.80;;;;;;;20.64;66.22;95048.19;5055493;28;20443;-80
2023/09/14 04:38:44;;;;;;;8.77;6.73;;;;;;;20.68;65.79;95043.31;5055970;28;20488;-80
2023/09/14 04:41:11;;;;;;;11.90;6.90;;;;;;;20.61;65.64;95047.75;5055989;28;20452;-81
2023/09/14 04:43:38;;;;;;;10.43;6.57;;;;;;;20.53;65.60;95046.03;5055777;28;20489;-80
2023/09/14 04:46:05;;;;;;;16.17;7.47;;;;;;;20.46;66.25;95046.94;5054981;28;20480;-80
2023/09/14 04:48:32;;;;;;;6.93;6.23;;;;;;;20.36;66.26;95044.53;5053433;28;20449;-80
2023/09/14 04:50:59;;;;;;;11.27;6.63;;;;;;;20.28;nan;95050.81;5054091;28;20471;-80
2023/09/14 04:53:28;;;;;;;8.00;6.27;;;;;;;20.26;66.24;95055.50;5055172;28;20544;-79
2023/09/14 04:55:55;;;;;;;7.37;6.67;;;;;;;20.14;66.07;95053.47;5054363;28;21572;-79
2023/09/14 04:58:22;;;;;;;9.53;6.83;;;;;;;20.06;66.78;95049.91;5054736;28;20450;-79
2023/09/14 05:00:49;;;;;;;8.70;6.97;;;;;;;20.10;67.00;95045.03;5055393;28;20473;-79
2023/09/14 05:03:16;;;;;;;12.83;7.83;;;;;;;20.08;67.25;95047.03;5055081;28;20489;-78
2023/09/14 05:05:43;;;;;;;10.50;6.80;;;;;;;20.04;67.46;95049.25;5054112;28;20913;-80
2023/09/14 05:08:09;;;;;;;11.50;7.07;;;;;;;20.10;67.16;95055.69;5054263;28;20445;-79
2023/09/14 05:10:38;;;;;;;8.07;6.50;;;;;;;20.25;67.01;95059.16;5054384;28;20430;-81
2023/09/14 05:13:05;;;;;;;11.07;8.00;;;;;;;20.38;66.84;95051.31;5032435;28;20444;-81
2023/09/14 05:15:32;;;;;;;7.90;6.90;;;;;;;20.64;65.67;95063.34;5039682;28;20443;-81
2023/09/14 05:17:58;;;;;;;8.93;6.83;;;;;;;21.02;64.40;95061.31;5057422;28;20537;-80
2023/09/14 05:20:25;;;;;;;11.83;6.90;;;;;;;21.46;63.44;95058.47;5055116;28;20502;-79
2023/09/14 05:22:52;;;;;;;10.73;7.27;;;;;;;21.79;61.39;95061.38;5060632;28;20447;-79
2023/09/14 05:25:20;;;;;;;11.97;6.17;;;;;;;22.02;60.50;95055.78;5057643;28;20450;-78
2023/09/14 05:27:48;;;;;;;9.17;6.83;;;;;;;22.17;60.22;95061.88;5054588;28;20556;-80
2023/09/14 05:30:15;;;;;;;10.60;8.10;;;;;;;22.23;59.99;95058.38;5053538;28;20466;-80
2023/09/14 05:32:42;;;;;;;8.10;7.30;;;;;;;22.26;59.79;95059.84;5054411;28;20450;-80
2023/09/14 05:35:09;;;;;;;8.40;6.47;;;;;;;22.30;59.60;95055.78;5052607;28;20509;-80
2023/09/14 05:37:36;;;;;;;12.70;7.67;;;;;;;22.31;59.59;95048.59;5053596;28;20928;-79
2023/09/14 05:40:09;;;;;;;11.30;7.20;;;;;;;22.30;59.91;95053.09;5052800;28;20509;-80
2023/09/14 05:42:37;;;;;;;11.07;6.53;;;;;;;22.26;60.69;95049.16;5052965;28;20520;-80
2023/09/14 05:45:07;;;;;;;13.40;8.37;;;;;;;22.40;60.63;95055.41;5053812;28;20484;-80
2023/09/14 05:47:34;;;;;;;12.30;7.73;;;;;;;22.43;60.26;95050.47;5054498;28;20443;-80
2023/09/14 05:50:01;;;;;;;18.87;7.37;;;;;;;22.52;59.82;95045.78;5018965;28;20441;-80
2023/09/14 05:52:28;;;;;;;10.73;7.10;;;;;;;22.47;59.59;95053.56;5018455;28;20517;-80
2023/09/14 05:54:55;;;;;;;10.00;7.47;;;;;;;22.44;59.33;95049.44;5053712;28;20456;-80
2023/09/14 05:57:22;;;;;;;20.17;7.40;;;;;;;22.66;59.12;95054.69;5053439;28;20872;-79
2023/09/14 05:59:49;;;;;;;12.57;7.40;;;;;;;22.83;58.40;95061.34;5052971;28;20796;-80
2023/09/14 06:02:18;;;;;;;11.53;6.40;;;;;;;23.02;60.27;95062.44;5017321;28;20440;-79
2023/09/14 06:04:45;;;;;;;12.33;7.40;;;;;;;23.21;58.00;95058.97;5053066;28;20850;-80
2023/09/14 06:07:12;;;;;;;16.50;6.90;;;;;;;23.29;58.00;95063.31;5052961;28;20805;-81
2023/09/14 06:09:39;;;;;;;10.30;7.00;;;;;;;23.27;55.88;95066.19;5053121;28;20444;-81
2023/09/14 06:12:06;;;;;;;11.60;7.07;;;;;;;22.94;55.97;95058.09;5052366;28;20491;-79
2023/09/14 06:14:34;;;;;;;9.53;7.10;;;;;;;22.98;57.31;95055.84;5052988;28;20439;-80
2023/09/14 06:17:00;;;;;;;11.10;7.63;;;;;;;23.08;57.51;95057.09;5052745;28;20437;-80
2023/09/14 06:19:29;;;;;;;11.77;7.33;;;;;;;22.86;57.67;95050.28;5053160;28;20435;-79
2023/09/14 06:21:56;;;;;;;13.83;7.50;;;;;;;22.57;58.33;95048.69;5052770;28;20450;-79
2023/09/14 06:24:22;;;;;;;13.57;6.80;;;;;;;22.70;59.14;95054.09;5052695;28;21009;-80
2023/09/14 06:26:50;;;;;;;8.63;7.20;;;;;;;22.85;59.38;95049.44;5052093;28;20442;-79
2023/09/14 06:29:17;;;;;;;15.53;7.90;;;;;;;22.89;59.69;95049.84;5051824;28;20445;-79
2023/09/14 06:31:44;;;;;;;8.90;6.70;;;;;;;22.87;60.21;95051.91;5052218;28;20505;-80
2023/09/14 06:34:11;;;;;;;15.20;7.67;;;;;;;22.88;60.18;95055.41;5051149;28;20438;-80
2023/09/14 06:36:39;;;;;;;19.73;8.50;;;;;;;22.93;59.90;95055.63;5033571;28;20452;-81
2023/09/14 06:39:07;;;;;;;17.90;7.97;;;;;;;22.90;58.96;95056.03;5051285;28;20455;-80
2023/09/14 06:41:33;;;;;;;15.60;8.30;;;;;;;22.88;59.44;95068.78;5033346;28;20444;-80
2023/09/14 06:44:00;;;;;;;12.33;6.90;;;;;;;22.76;58.80;95069.31;5051907;28;20482;-80
2023/09/14 06:46:27;;;;;;;14.60;7.47;;;;;;;22.74;58.81;95068.72;5017207;28;20452;-80
2023/09/14 06:48:54;;;;;;;16.13;8.43;;;;;;;22.60;59.36;95076.91;5052342;28;20447;-80
2023/09/14 06:51:21;;;;;;;15.50;7.67;;;;;;;22.65;58.62;95083.28;5052147;28;20451;-80
2023/09/14 06:53:51;;;;;;;15.40;8.27;;;;;;;22.71;59.49;95082.50;5051921;28;20966;-80
2023/09/14 06:56:18;;;;;;;23.47;8.47;;;;;;;22.75;58.94;95083.72;5051818;28;20450;-80
2023/09/14 06:58:45;;;;;;;9.83;7.77;;;;;;;22.84;59.93;95087.94;5033135;28;20442;-80
2023/09/14 07:01:11;;;;;;;16.70;8.60;;;;;;;22.85;59.50;95092.25;5051889;28;21025;-80
2023/09/14 07:03:38;;;;;;;19.23;8.57;;;;;;;22.95;59.65;95091.88;5051484;28;20487;-80
2023/09/14 07:06:11;;;;;;;17.13;7.80;;;;;;;22.94;59.36;95092.91;5051638;28;20443;-79
2023/09/14 07:08:41;;;;;;;10.90;7.60;;;;;;;22.85;59.50;95086.91;5051991;28;20442;-80
2023/09/14 07:11:09;;;;;;;11.73;8.20;;;;;;;23.13;59.22;95085.94;5051764;28;20486;-80
2023/09/14 07:13:36;;;;;;;18.30;7.63;;;;;;;23.49;58.80;95094.47;5051867;28;20449;-80
2023/09/14 07:16:04;;;;;;;14.33;8.40;;;;;;;23.66;55.89;95094.88;5052232;28;20447;-80
2023/09/14 07:18:33;;;;;;;9.80;6.43;;;;;;;23.77;56.42;95096.16;5052120;28;20488;-80
2023/09/14 07:21:01;;;;;;;16.23;6.87;;;;;;;23.95;56.77;95099.00;5018048;28;20448;-80
2023/09/14 07:23:29;;;;;;;10.93;7.00;;;;;;;24.18;55.89;95097.75;5051687;28;20457;-81
2023/09/14 07:25:56;;;;;;;10.90;6.83;;;;;;;24.39;54.72;95094.88;5051900;28;20456;-80
2023/09/14 07:28:24;;;;;;;14.60;8.17;;;;;;;24.45;54.99;95098.56;5016783;28;20437;-80
2023/09/14 07:30:52;;;;;;;12.90;8.60;;;;;;;24.44;55.25;95092.38;5052337;28;20457;-80
2023/09/14 07:33:20;;;;;;;10.10;6.60;;;;;;;24.56;54.48;95095.22;5051880;28;20480;-81
2023/09/14 07:35:47;;;;;;;17.10;7.20;;;;;;;24.56;54.04;95090.66;5051890;28;20468;-80
2023/09/14 07:38:14;;;;;;;10.90;6.70;;;;;;;24.69;53.20;95100.53;5051631;28;20949;-80
2023/09/14 07:40:41;;;;;;;14.23;6.87;;;;;;;24.65;53.26;95086.72;5051925;28;20441;-80
2023/09/14 07:43:08;;;;;;;10.70;6.80;;;;;;;24.70;52.01;95097.66;5051661;28;20849;-80
2023/09/14 07:45:38;;;;;;;10.43;6.30;;;;;;;24.90;51.90;95091.38;5053854;28;20554;-81
2023/09/14 07:48:07;;;;;;;13.47;6.70;;;;;;;24.89;52.14;95087.88;5056167;28;20554;-80
2023/09/14 07:50:36;;;;;;;14.30;6.83;;;;;;;25.16;51.62;95095.84;5020678;28;20429;-81
2023/09/14 07:53:03;;;;;;;14.80;6.90;;;;;;;25.41;49.94;95093.19;5055664;28;20449;-80
2023/09/14 07:55:30;;;;;;;9.37;7.17;;;;;;;25.65;51.25;95092.38;5055788;28;20445;-80
2023/09/14 07:57:58;;;;;;;12.63;8.60;;;;;;;25.89;49.65;95080.84;5056951;28;20441;-80
2023/09/14 08:00:25;;;;;;;14.37;7.97;;;;;;;26.19;49.25;95080.16;5061470;28;20450;-80
2023/09/14 08:03:01;;;;;;;9.47;8.03;;;;;;;26.44;49.14;95083.66;5025904;28;20446;-80
2023/09/14 08:05:30;;;;;;;8.60;7.13;;;;;;;26.64;47.68;95088.84;5055525;28;20480;-80
2023/09/14 08:08:20;;;;;;;;;;;;;;;;;;;;;
2023/09/14 08:11:01;;;;;;;10.07;6.40;;;;;;;27.03;46.76;95078.66;4990049;28;20446;-80
2023/09/14 08:14:02;;;;;;;12.33;6.67;;;;;;;27.19;46.28;95075.34;5016535;28;20438;-79
2023/09/14 08:17:04;;;;;;;14.10;7.53;;;;;;;27.28;46.45;95078.53;4974468;28;20966;-80
2023/09/14 08:20:23;;;;;;;17.80;7.70;;;;;;;27.19;47.52;95066.44;4880463;29;20465;-81
2023/09/14 08:22:50;;;;;;;17.83;9.10;;;;;;;27.41;46.60;95078.31;4880674;29;20453;-81
2023/09/14 08:25:16;;;;;;;16.77;8.30;;;;;;;27.55;46.89;95076.25;4880575;29;20489;-80
2023/09/14 08:27:44;;;;;;;11.30;7.10;;;;;;;27.62;48.08;95077.84;4879086;29;20448;-78
2023/09/14 08:30:12;;;;;;;14.03;7.23;;;;;;;27.57;45.52;95074.97;4878969;29;20514;-81
2023/09/14 08:32:39;;;;;;;11.10;6.13;;;;;;;26.94;46.88;95066.53;4848295;29;20491;-79
2023/09/14 08:35:23;;;;;;;10.27;7.67;;;;;;;26.66;47.91;95067.91;4878947;29;20454;-78
2023/09/14 08:37:50;;;;;;;16.10;6.93;;;;;;;26.53;47.88;95063.47;4878943;29;20454;-80
2023/09/14 08:40:18;;;;;;;25.03;10.17;;;;;;;26.41;48.43;95061.78;4903723;29;20924;-78
2023/09/14 08:42:48;;;;;;;18.63;9.50;;;;;;;26.61;47.40;95061.56;4961181;28;20460;-82
2023/09/14 08:45:16;;;;;;;14.63;9.07;;;;;;;26.64;47.67;95064.63;5035003;28;20485;-79
2023/09/14 08:47:47;;;;;;;21.80;7.23;;;;;;;26.95;46.08;95060.09;5035279;28;20844;-81
2023/09/14 08:50:16;;;;;;;16.67;6.90;;;;;;;27.15;45.03;95057.97;5034758;28;20926;-81
2023/09/14 08:52:46;;;;;;;12.47;7.00;;;;;;;27.26;45.17;95056.38;5034756;28;20454;-81
2023/09/14 08:55:13;;;;;;;14.47;7.27;;;;;;;27.33;45.65;95052.53;5034831;28;20438;-79
2023/09/14 08:57:41;;;;;;;10.30;6.73;;;;;;;27.26;45.83;95045.59;5034118;28;20439;-79
2023/09/14 09:00:14;;;;;;;17.50;7.20;;;;;;;27.26;44.94;95045.59;5034700;28;20454;-79
2023/09/14 09:02:46;;;;;;;11.50;7.10;;;;;;;27.48;45.20;95046.72;5034859;28;20443;-79
2023/09/14 09:05:14;;;;;;;12.30;6.90;;;;;;;27.52;44.84;95045.19;5034681;28;21015;-79
2023/09/14 09:07:43;;;;;;;19.73;6.50;;;;;;;27.66;44.38;95030.47;5034522;28;20447;-79
2023/09/14 09:10:19;;;;;;;19.03;7.03;;;;;;;27.73;45.77;95033.88;5034661;28;20447;-79
2023/09/14 09:12:46;;;;;;;18.10;7.93;;;;;;;27.80;43.97;95030.25;5048632;28;20481;-80
2023/09/14 09:15:14;;;;;;;26.27;7.93;;;;;;;27.54;43.37;95024.22;5034464;28;20596;-79
2023/09/14 09:17:42;;;;;;;19.10;8.50;;;;;;;27.75;44.39;95026.38;5034427;28;20583;-79
2023/09/14 09:20:19;;;;;;;11.97;6.27;;;;;;;27.35;43.95;95019.94;5034535;28;20874;-79
2023/09/14 09:22:46;;;;;;;7.20;6.50;;;;;;;27.47;43.53;95012.72;5034326;28;20927;-79
2023/09/14 09:25:15;;;;;;;19.93;8.57;;;;;;;27.52;43.83;95009.34;5015611;28;20509;-80
2023/09/14 09:27:42;;;;;;;12.23;7.47;;;;;;;27.63;43.70;95000.47;5034287;28;20455;-81
2023/09/14 09:30:09;;;;;;;14.67;8.27;;;;;;;27.73;43.88;94996.13;5034195;28;20481;-80
2023/09/14 09:32:38;;;;;;;17.40;7.30;;;;;;;27.69;44.57;95005.72;5033988;28;20858;-80
2023/09/14 09:35:19;;;;;;;19.77;8.63;;;;;;;27.86;44.17;94997.78;5034198;28;20449;-80
2023/09/14 09:37:47;;;;;;;10.20;7.77;;;;;;;27.97;44.29;94988.03;5033928;28;20489;-80
2023/09/14 09:40:16;;;;;;;16.77;8.23;;;;;;;28.00;43.86;94995.66;5033832;28;20453;-79
2023/09/14 09:42:44;;;;;;;13.60;7.00;;;;;;;28.05;43.51;94982.31;5034265;28;20788;-80
2023/09/14 09:45:12;;;;;;;15.73;9.40;;;;;;;28.18;43.69;94989.31;5033775;28;20873;-80
2023/09/14 09:47:39;;;;;;;14.77;8.57;;;;;;;28.31;43.54;94998.00;5015469;28;20447;-79
2023/09/14 09:50:10;;;;;;;14.43;7.57;;;;;;;28.40;42.47;94993.06;5033987;28;20449;-80
2023/09/14 09:52:39;;;;;;;12.70;7.90;;;;;;;28.45;41.97;94986.94;5033820;28;20500;-80
2023/09/14 09:55:07;;;;;;;18.70;7.40;;;;;;;28.50;42.10;94992.44;5033697;28;20469;-80
2023/09/14 09:57:37;;;;;;;14.60;8.13;;;;;;;28.55;43.37;94989.84;5034046;28;20449;-80
2023/09/14 10:00:12;;;;;;;13.90;9.97;;;;;;;28.41;42.11;94993.88;5033570;28;20505;-80
2023/09/14 10:02:40;;;;;;;16.80;8.97;;;;;;;28.45;42.51;94986.94;5033544;28;20445;-80
2023/09/14 10:05:08;;;;;;;20.33;8.93;;;;;;;28.46;42.39;94983.19;5033726;28;20497;-79
2023/09/14 10:07:38;;;;;;;14.00;8.80;;;;;;;28.47;42.34;94976.72;5015189;28;20556;-79
2023/09/14 10:10:05;;;;;;;14.93;9.83;;;;;;;28.56;43.20;94975.28;5033415;28;20598;-80
2023/09/14 10:12:33;;;;;;;12.57;8.70;;;;;;;28.69;42.17;94983.13;5033327;28;20470;-80
2023/09/14 10:15:04;;;;;;;21.67;8.93;;;;;;;28.77;42.08;94980.03;5047670;28;20526;-80
2023/09/14 10:17:32;;;;;;;21.57;7.87;;;;;;;28.81;42.16;94974.97;5033647;28;20909;-80
2023/09/14 10:19:59;;;;;;;16.87;8.40;;;;;;;28.90;41.00;94977.06;5033332;28;20513;-80
2023/09/14 10:22:27;;;;;;;17.27;8.37;;;;;;;28.99;41.75;94970.22;5033088;28;20443;-80
2023/09/14 10:24:56;;;;;;;18.00;6.90;;;;;;;29.07;40.31;94974.41;5032904;28;20858;-80
2023/09/14 10:27:23;;;;;;;20.83;7.87;;;;;;;29.15;40.33;94971.31;5033293;28;20439;-80
2023/09/14 10:29:52;;;;;;;13.13;7.40;;;;;;;29.08;38.86;94967.13;5032993;28;20474;-80
2023/09/14 10:32:22;;;;;;;16.47;7.50;;;;;;;29.11;39.24;94967.44;5033505;28;20772;-80
2023/09/14 10:34:50;;;;;;;16.63;8.10;;;;;;;29.21;38.86;94959.53;5033232;28;20446;-80
2023/09/14 10:37:20;;;;;;;15.53;8.60;;;;;;;29.28;38.73;94951.25;5032929;28;20447;-80
2023/09/14 10:39:47;;;;;;;15.47;7.87;;;;;;;29.30;38.88;94941.84;5032798;28;20447;-80
2023/09/14 10:42:14;;;;;;;12.07;8.27;;;;;;;29.12;38.83;94943.94;5032943;28;20442;-80
2023/09/14 10:44:41;;;;;;;17.30;8.23;;;;;;;29.17;39.90;94939.44;4997781;28;20478;-80
2023/09/14 10:47:10;;;;;;;12.30;7.07;;;;;;;29.33;38.75;94940.53;5032699;28;20446;-80
2023/09/14 10:49:42;;;;;;;15.80;7.13;;;;;;;29.43;38.18;94935.28;5032894;28;20446;-79
2023/09/14 10:52:09;;;;;;;8.07;7.27;;;;;;;29.39;36.17;94933.31;5032725;28;20516;-80
2023/09/14 10:54:36;;;;;;;13.30;7.30;;;;;;;29.22;36.02;94927.91;5032875;28;20446;-79
2023/09/14 10:57:14;;;;;;;14.93;7.20;;;;;;;29.30;36.92;94931.03;5032576;28;20442;-77
2023/09/14 10:59:48;;;;;;;11.63;6.93;;;;;;;29.42;35.46;94933.63;5047044;28;20521;-79
2023/09/14 11:02:49;;;;;;;11.13;6.60;;;;;;;29.36;33.71;94921.09;5032371;28;20450;-79
2023/09/14 11:05:19;;;;;;;14.60;6.80;;;;;;;29.37;34.46;94921.94;5032509;28;20482;-80
2023/09/14 11:07:48;;;;;;;15.10;7.40;;;;;;;29.40;34.85;94924.94;5032413;28;20430;-80
2023/09/14 11:10:17;;;;;;;12.53;5.80;;;;;;;29.48;34.49;94913.75;5032420;28;20534;-80
2023/09/14 11:12:44;;;;;;;14.93;6.97;;;;;;;29.39;35.87;94915.19;5032408;28;20565;-80
2023/09/14 11:15:15;;;;;;;18.00;7.53;;;;;;;29.34;35.29;94915.13;5046427;28;20492;-80
2023/09/14 11:17:43;;;;;;;9.47;6.53;;;;;;;29.48;34.58;94916.44;5032722;28;20458;-80
2023/09/14 11:20:45;;;;;;;13.50;6.60;;;;;;;29.60;33.93;94905.56;5031773;28;21258;-80
2023/09/14 11:23:14;;;;;;;8.70;7.10;;;;;;;29.68;34.24;94896.19;4971051;28;20453;-80
2023/09/14 11:25:42;;;;;;;13.83;7.03;;;;;;;29.77;34.61;94898.22;4971220;28;20495;-80
2023/09/14 11:28:09;;;;;;;9.23;5.87;;;;;;;29.84;34.69;94901.59;4971435;28;20536;-80
2023/09/14 11:30:43;;;;;;;10.80;6.80;;;;;;;29.88;34.62;94900.00;4971123;28;20448;-80
2023/09/14 11:33:10;;;;;;;7.23;6.47;;;;;;;29.82;32.90;94894.78;4971244;28;20449;-80
2023/09/14 11:35:39;;;;;;;8.67;6.70;;;;;;;29.89;33.22;94896.25;4971230;28;20445;-80